Amado Nervo National Airport
MMEP : rendu visible

Aérodrome :











RETROUVEZ-NOUS SUR...

 
LOGIN :

S'inscrire | Disclaimer

   EN    FR    IT 

 









Légende :    VFR   VFR Marginal   IFR   IFR Intensif   IFR Très Intensif
Visi : 
Plafond : 
>= 8 km
>= 3000ft
5 à 8 km
1000 à 3000 ft
1500m à 5 km
500 à 1000 ft
800 à 1500m
200 à 500 ft
< 800m
< 200 ft
Symboles :   Orages  Brouillard  Fortes neiges  Fortes précipitations  Vent > 20 kt






- Altitude de l'aérodrome : 3020 ft
- Code IATA : TPQ


MMEP - Amado Nervo National

DERNIER METAR :
  • 262352Z 36010KT 12SM FEW030 SCT230 28/17 A2997 RMK SLP111 56001 907 8/501 HZY

METARs EXPIRÉS :
  • 262244Z 34009KT 12SM FEW230 29/17 A2995 RMK 8/001 HZY ISOL CU
  • 262140Z 34008KT 12SM SKC 30/16 A2997 RMK HZY

TAF COR TAF MMEP
Valide du 26 à 18h jusqu'au 27 à 18h UTC


261900Z 2618/2718 32006KT P6SM SCT230
BECMG 2620/2621 35012KT
FM270200 00000KT P6SM SCT020
BECMG 2705/2706 3SM BR HZ BKN015
FM271000 00000KT 5SM HZ SCT015
TEMPO 2710/2714 3SM BR HZ
FM271500 00000KT P6SM SKC
FIR MMFR / Amérique du Nord



MET'MAP, la Météo Aéronautique d'un coup d'oeil ! - Copyright ORBIFLY Décembre 2007 - Disclaimer

ORBIFLY MET'MAP TEAM :

Programmation & Développement : Alexandra Zaïnal
Sur une idée originale de : Baudouin d'Aumeries
Assistance à la programmation : Marc-Olivier Méhu
Soutien technique & logistique : Manuel Goepfert

Contact : metmap@orbifly.com




SOURCES & CREDITS :

   NOAA       Earth
Advisory